sensor_id;sensor_type;location;lat;lon;timestamp;P1;durP1;ratioP1;P2;durP2;ratioP2
63784;SDS011;49927;48.146;11.420;2022-10-03T00:00:12;9.85;;;6.40;;
63784;SDS011;49927;48.146;11.420;2022-10-03T00:03:06;10.70;;;5.78;;
63784;SDS011;49927;48.146;11.420;2022-10-03T00:05:48;11.07;;;6.35;;
63784;SDS011;49927;48.146;11.420;2022-10-03T00:08:24;8.35;;;5.47;;
63784;SDS011;49927;48.146;11.420;2022-10-03T00:10:57;7.47;;;5.35;;
63784;SDS011;49927;48.146;11.420;2022-10-03T00:13:28;7.97;;;5.03;;
63784;SDS011;49927;48.146;11.420;2022-10-03T00:16:01;10.15;;;5.53;;
63784;SDS011;49927;48.146;11.420;2022-10-03T00:18:35;8.38;;;5.88;;
63784;SDS011;49927;48.146;11.420;2022-10-03T00:23:59;9.30;;;5.63;;
63784;SDS011;49927;48.146;11.420;2022-10-03T00:26:34;8.90;;;5.57;;
63784;SDS011;49927;48.146;11.420;2022-10-03T00:29:10;17.95;;;6.32;;
63784;SDS011;49927;48.146;11.420;2022-10-03T00:32:01;9.73;;;5.47;;
63784;SDS011;49927;48.146;11.420;2022-10-03T00:34:35;10.45;;;6.35;;
63784;SDS011;49927;48.146;11.420;2022-10-03T00:37:17;10.57;;;6.38;;
63784;SDS011;49927;48.146;11.420;2022-10-03T00:39:52;22.00;;;6.82;;
63784;SDS011;49927;48.146;11.420;2022-10-03T00:45:36;11.32;;;6.00;;
63784;SDS011;49927;48.146;11.420;2022-10-03T00:48:24;10.63;;;6.60;;
63784;SDS011;49927;48.146;11.420;2022-10-03T00:51:16;9.60;;;6.43;;
63784;SDS011;49927;48.146;11.420;2022-10-03T00:53:49;11.15;;;6.38;;
63784;SDS011;49927;48.146;11.420;2022-10-03T00:56:30;12.98;;;6.72;;
63784;SDS011;49927;48.146;11.420;2022-10-03T00:59:07;12.00;;;6.93;;
63784;SDS011;49927;48.146;11.420;2022-10-03T01:01:41;12.63;;;7.03;;
63784;SDS011;49927;48.146;11.420;2022-10-03T01:04:13;13.90;;;7.25;;
63784;SDS011;49927;48.146;11.420;2022-10-03T01:06:48;11.13;;;6.47;;
63784;SDS011;49927;48.146;11.420;2022-10-03T01:09:31;17.38;;;7.35;;
63784;SDS011;49927;48.146;11.420;2022-10-03T01:12:11;11.82;;;7.40;;
63784;SDS011;49927;48.146;11.420;2022-10-03T01:14:46;13.02;;;7.68;;
63784;SDS011;49927;48.146;11.420;2022-10-03T01:17:21;12.13;;;7.10;;
63784;SDS011;49927;48.146;11.420;2022-10-03T01:20:04;13.75;;;7.53;;
63784;SDS011;49927;48.146;11.420;2022-10-03T01:25:24;13.35;;;7.07;;
63784;SDS011;49927;48.146;11.420;2022-10-03T01:28:02;11.60;;;7.60;;
63784;SDS011;49927;48.146;11.420;2022-10-03T01:31:04;15.38;;;9.63;;
63784;SDS011;49927;48.146;11.420;2022-10-03T01:33:32;13.80;;;7.95;;
63784;SDS011;49927;48.146;11.420;2022-10-03T01:36:02;16.42;;;8.48;;
63784;SDS011;49927;48.146;11.420;2022-10-03T01:38:35;13.40;;;8.30;;
63784;SDS011;49927;48.146;11.420;2022-10-03T01:41:08;14.38;;;8.07;;
63784;SDS011;49927;48.146;11.420;2022-10-03T01:43:36;14.95;;;8.48;;
63784;SDS011;49927;48.146;11.420;2022-10-03T01:46:10;14.35;;;7.70;;
63784;SDS011;49927;48.146;11.420;2022-10-03T01:48:41;13.35;;;7.88;;
63784;SDS011;49927;48.146;11.420;2022-10-03T01:51:12;13.27;;;8.48;;
63784;SDS011;49927;48.146;11.420;2022-10-03T01:53:45;13.75;;;8.93;;
63784;SDS011;49927;48.146;11.420;2022-10-03T01:56:23;14.32;;;8.25;;
63784;SDS011;49927;48.146;11.420;2022-10-03T01:58:55;12.25;;;8.20;;
63784;SDS011;49927;48.146;11.420;2022-10-03T02:01:28;14.35;;;8.57;;
63784;SDS011;49927;48.146;11.420;2022-10-03T02:04:00;13.40;;;7.93;;
63784;SDS011;49927;48.146;11.420;2022-10-03T02:06:32;14.43;;;8.30;;
63784;SDS011;49927;48.146;11.420;2022-10-03T02:09:04;15.13;;;8.48;;
63784;SDS011;49927;48.146;11.420;2022-10-03T02:11:34;16.38;;;9.00;;
63784;SDS011;49927;48.146;11.420;2022-10-03T02:14:08;16.70;;;9.02;;
63784;SDS011;49927;48.146;11.420;2022-10-03T02:16:42;15.85;;;9.07;;
63784;SDS011;49927;48.146;11.420;2022-10-03T02:19:14;16.85;;;10.70;;
63784;SDS011;49927;48.146;11.420;2022-10-03T02:21:47;15.70;;;8.20;;
63784;SDS011;49927;48.146;11.420;2022-10-03T02:24:20;16.58;;;9.05;;
63784;SDS011;49927;48.146;11.420;2022-10-03T02:27:06;13.48;;;7.85;;
63784;SDS011;49927;48.146;11.420;2022-10-03T02:29:54;14.90;;;8.02;;
63784;SDS011;49927;48.146;11.420;2022-10-03T02:32:41;17.90;;;9.48;;
63784;SDS011;49927;48.146;11.420;2022-10-03T02:38:17;16.73;;;8.43;;
63784;SDS011;49927;48.146;11.420;2022-10-03T02:41:30;25.08;;;10.80;;
63784;SDS011;49927;48.146;11.420;2022-10-03T02:44:20;16.65;;;8.05;;
63784;SDS011;49927;48.146;11.420;2022-10-03T02:50:10;13.88;;;7.40;;
63784;SDS011;49927;48.146;11.420;2022-10-03T02:53:21;15.68;;;8.65;;
63784;SDS011;49927;48.146;11.420;2022-10-03T02:59:17;17.15;;;8.68;;
63784;SDS011;49927;48.146;11.420;2022-10-03T03:01:59;19.98;;;9.27;;
63784;SDS011;49927;48.146;11.420;2022-10-03T03:04:42;14.68;;;8.07;;
63784;SDS011;49927;48.146;11.420;2022-10-03T03:07:41;14.98;;;7.70;;
63784;SDS011;49927;48.146;11.420;2022-10-03T03:19:24;17.13;;;8.00;;
63784;SDS011;49927;48.146;11.420;2022-10-03T03:22:00;14.65;;;8.45;;
63784;SDS011;49927;48.146;11.420;2022-10-03T03:24:43;11.88;;;8.23;;
63784;SDS011;49927;48.146;11.420;2022-10-03T03:27:18;15.82;;;9.05;;
63784;SDS011;49927;48.146;11.420;2022-10-03T03:30:01;17.83;;;9.82;;
63784;SDS011;49927;48.146;11.420;2022-10-03T03:32:32;20.50;;;9.82;;
63784;SDS011;49927;48.146;11.420;2022-10-03T03:35:07;18.95;;;9.88;;
63784;SDS011;49927;48.146;11.420;2022-10-03T03:37:38;18.60;;;9.95;;
63784;SDS011;49927;48.146;11.420;2022-10-03T03:40:21;18.17;;;9.85;;
63784;SDS011;49927;48.146;11.420;2022-10-03T03:43:06;21.30;;;11.10;;
63784;SDS011;49927;48.146;11.420;2022-10-03T03:45:41;19.65;;;10.70;;
63784;SDS011;49927;48.146;11.420;2022-10-03T03:56:28;21.35;;;10.75;;
63784;SDS011;49927;48.146;11.420;2022-10-03T03:59:08;20.50;;;11.00;;
63784;SDS011;49927;48.146;11.420;2022-10-03T04:01:44;23.60;;;11.85;;
63784;SDS011;49927;48.146;11.420;2022-10-03T04:04:27;23.30;;;11.52;;
63784;SDS011;49927;48.146;11.420;2022-10-03T04:07:05;18.63;;;10.85;;
63784;SDS011;49927;48.146;11.420;2022-10-03T04:09:41;22.45;;;11.32;;
63784;SDS011;49927;48.146;11.420;2022-10-03T04:12:18;26.55;;;11.15;;
63784;SDS011;49927;48.146;11.420;2022-10-03T04:17:28;22.02;;;11.90;;
63784;SDS011;49927;48.146;11.420;2022-10-03T04:20:05;18.35;;;10.85;;
63784;SDS011;49927;48.146;11.420;2022-10-03T04:22:46;20.40;;;11.20;;
63784;SDS011;49927;48.146;11.420;2022-10-03T04:28:15;22.45;;;11.07;;
63784;SDS011;49927;48.146;11.420;2022-10-03T04:30:49;18.48;;;10.27;;
63784;SDS011;49927;48.146;11.420;2022-10-03T04:33:27;23.80;;;11.95;;
63784;SDS011;49927;48.146;11.420;2022-10-03T04:36:10;19.60;;;10.75;;
63784;SDS011;49927;48.146;11.420;2022-10-03T04:38:47;19.35;;;9.70;;
63784;SDS011;49927;48.146;11.420;2022-10-03T04:41:19;19.08;;;10.05;;
63784;SDS011;49927;48.146;11.420;2022-10-03T04:43:52;21.08;;;10.88;;
63784;SDS011;49927;48.146;11.420;2022-10-03T04:46:23;15.38;;;9.10;;
63784;SDS011;49927;48.146;11.420;2022-10-03T04:48:54;16.65;;;10.02;;
63784;SDS011;49927;48.146;11.420;2022-10-03T04:51:26;15.38;;;9.30;;
63784;SDS011;49927;48.146;11.420;2022-10-03T04:54:02;15.25;;;8.82;;
63784;SDS011;49927;48.146;11.420;2022-10-03T04:56:42;21.05;;;10.35;;
63784;SDS011;49927;48.146;11.420;2022-10-03T04:59:24;17.10;;;9.70;;
63784;SDS011;49927;48.146;11.420;2022-10-03T05:01:54;18.77;;;9.90;;
63784;SDS011;49927;48.146;11.420;2022-10-03T05:04:25;17.70;;;10.10;;
63784;SDS011;49927;48.146;11.420;2022-10-03T05:06:58;17.85;;;10.10;;
63784;SDS011;49927;48.146;11.420;2022-10-03T05:09:30;21.17;;;10.80;;
63784;SDS011;49927;48.146;11.420;2022-10-03T05:12:01;22.38;;;10.05;;
63784;SDS011;49927;48.146;11.420;2022-10-03T05:14:39;14.18;;;8.70;;
63784;SDS011;49927;48.146;11.420;2022-10-03T05:17:13;15.65;;;8.80;;
63784;SDS011;49927;48.146;11.420;2022-10-03T05:22:31;20.27;;;9.83;;
63784;SDS011;49927;48.146;11.420;2022-10-03T05:25:09;16.45;;;10.23;;
63784;SDS011;49927;48.146;11.420;2022-10-03T05:27:40;18.30;;;8.88;;
63784;SDS011;49927;48.146;11.420;2022-10-03T05:30:14;15.95;;;8.38;;
63784;SDS011;49927;48.146;11.420;2022-10-03T05:32:44;17.13;;;9.20;;
63784;SDS011;49927;48.146;11.420;2022-10-03T05:35:20;18.63;;;9.95;;
63784;SDS011;49927;48.146;11.420;2022-10-03T05:37:56;16.90;;;10.32;;
63784;SDS011;49927;48.146;11.420;2022-10-03T05:40:28;19.70;;;9.93;;
63784;SDS011;49927;48.146;11.420;2022-10-03T05:43:02;19.00;;;9.90;;
63784;SDS011;49927;48.146;11.420;2022-10-03T05:45:34;20.23;;;10.60;;
63784;SDS011;49927;48.146;11.420;2022-10-03T05:48:10;19.92;;;9.88;;
63784;SDS011;49927;48.146;11.420;2022-10-03T05:50:41;21.08;;;9.73;;
63784;SDS011;49927;48.146;11.420;2022-10-03T05:53:42;22.15;;;11.60;;
63784;SDS011;49927;48.146;11.420;2022-10-03T05:56:20;24.40;;;10.60;;
63784;SDS011;49927;48.146;11.420;2022-10-03T06:02:02;20.75;;;10.77;;
63784;SDS011;49927;48.146;11.420;2022-10-03T06:04:52;25.88;;;11.38;;
63784;SDS011;49927;48.146;11.420;2022-10-03T06:07:25;17.02;;;10.18;;
63784;SDS011;49927;48.146;11.420;2022-10-03T06:12:59;24.42;;;11.48;;
63784;SDS011;49927;48.146;11.420;2022-10-03T06:24:29;21.30;;;10.57;;
63784;SDS011;49927;48.146;11.420;2022-10-03T06:27:14;21.85;;;11.65;;
63784;SDS011;49927;48.146;11.420;2022-10-03T06:41:47;21.77;;;10.23;;
63784;SDS011;49927;48.146;11.420;2022-10-03T06:44:42;20.17;;;10.50;;
63784;SDS011;49927;48.146;11.420;2022-10-03T06:47:35;22.02;;;9.73;;
63784;SDS011;49927;48.146;11.420;2022-10-03T06:56:12;23.83;;;11.25;;
63784;SDS011;49927;48.146;11.420;2022-10-03T06:59:02;28.35;;;12.18;;
63784;SDS011;49927;48.146;11.420;2022-10-03T07:01:57;29.92;;;12.65;;
63784;SDS011;49927;48.146;11.420;2022-10-03T07:10:45;33.47;;;14.55;;
63784;SDS011;49927;48.146;11.420;2022-10-03T07:16:30;35.80;;;16.05;;
63784;SDS011;49927;48.146;11.420;2022-10-03T07:22:36;39.67;;;17.02;;
63784;SDS011;49927;48.146;11.420;2022-10-03T07:25:15;41.13;;;17.75;;
63784;SDS011;49927;48.146;11.420;2022-10-03T07:27:52;37.63;;;16.35;;
63784;SDS011;49927;48.146;11.420;2022-10-03T07:30:28;32.85;;;16.02;;
63784;SDS011;49927;48.146;11.420;2022-10-03T07:36:19;32.92;;;17.00;;
63784;SDS011;49927;48.146;11.420;2022-10-03T07:38:54;35.03;;;16.30;;
63784;SDS011;49927;48.146;11.420;2022-10-03T07:48:07;35.72;;;17.75;;
63784;SDS011;49927;48.146;11.420;2022-10-03T07:50:43;33.83;;;16.17;;
63784;SDS011;49927;48.146;11.420;2022-10-03T07:53:18;34.80;;;16.25;;
63784;SDS011;49927;48.146;11.420;2022-10-03T07:55:56;32.85;;;16.48;;
63784;SDS011;49927;48.146;11.420;2022-10-03T07:58:32;41.70;;;22.10;;
63784;SDS011;49927;48.146;11.420;2022-10-03T08:01:26;26.58;;;14.73;;
63784;SDS011;49927;48.146;11.420;2022-10-03T08:04:07;27.20;;;14.90;;
63784;SDS011;49927;48.146;11.420;2022-10-03T08:06:54;31.58;;;14.57;;
63784;SDS011;49927;48.146;11.420;2022-10-03T08:09:34;27.40;;;14.23;;
63784;SDS011;49927;48.146;11.420;2022-10-03T08:12:23;28.83;;;13.52;;
63784;SDS011;49927;48.146;11.420;2022-10-03T08:14:56;24.85;;;14.13;;
63784;SDS011;49927;48.146;11.420;2022-10-03T08:26:27;36.92;;;15.32;;
63784;SDS011;49927;48.146;11.420;2022-10-03T08:47:11;35.20;;;15.63;;
63784;SDS011;49927;48.146;11.420;2022-10-03T08:52:45;26.30;;;13.73;;
63784;SDS011;49927;48.146;11.420;2022-10-03T08:55:28;29.67;;;15.18;;
63784;SDS011;49927;48.146;11.420;2022-10-03T09:00:55;30.40;;;16.30;;
63784;SDS011;49927;48.146;11.420;2022-10-03T09:12:31;32.22;;;15.43;;
63784;SDS011;49927;48.146;11.420;2022-10-03T09:15:13;22.75;;;12.40;;
63784;SDS011;49927;48.146;11.420;2022-10-03T09:23:51;31.02;;;14.93;;
63784;SDS011;49927;48.146;11.420;2022-10-03T09:26:39;19.55;;;13.30;;
63784;SDS011;49927;48.146;11.420;2022-10-03T09:35:46;24.08;;;15.30;;
63784;SDS011;49927;48.146;11.420;2022-10-03T09:38:23;24.27;;;13.68;;
63784;SDS011;49927;48.146;11.420;2022-10-03T09:47:04;24.67;;;14.63;;
63784;SDS011;49927;48.146;11.420;2022-10-03T09:49:47;24.20;;;13.32;;
63784;SDS011;49927;48.146;11.420;2022-10-03T09:52:46;24.67;;;14.18;;
63784;SDS011;49927;48.146;11.420;2022-10-03T09:55:39;23.92;;;14.35;;
63784;SDS011;49927;48.146;11.420;2022-10-03T09:58:21;21.88;;;12.45;;
63784;SDS011;49927;48.146;11.420;2022-10-03T10:01:02;25.67;;;15.23;;
63784;SDS011;49927;48.146;11.420;2022-10-03T10:03:47;22.15;;;13.23;;
63784;SDS011;49927;48.146;11.420;2022-10-03T10:06:51;23.20;;;12.63;;
63784;SDS011;49927;48.146;11.420;2022-10-03T10:09:45;20.77;;;11.68;;
63784;SDS011;49927;48.146;11.420;2022-10-03T10:12:35;16.30;;;11.30;;
63784;SDS011;49927;48.146;11.420;2022-10-03T10:18:56;16.90;;;9.32;;
63784;SDS011;49927;48.146;11.420;2022-10-03T10:30:47;25.85;;;14.85;;
63784;SDS011;49927;48.146;11.420;2022-10-03T10:36:45;20.27;;;10.73;;
63784;SDS011;49927;48.146;11.420;2022-10-03T10:42:22;12.40;;;7.63;;
63784;SDS011;49927;48.146;11.420;2022-10-03T10:45:23;16.23;;;7.80;;
63784;SDS011;49927;48.146;11.420;2022-10-03T10:54:13;15.27;;;6.65;;
63784;SDS011;49927;48.146;11.420;2022-10-03T10:57:01;9.98;;;5.75;;
63784;SDS011;49927;48.146;11.420;2022-10-03T11:08:52;15.20;;;7.47;;
63784;SDS011;49927;48.146;11.420;2022-10-03T11:15:02;6.55;;;5.35;;
63784;SDS011;49927;48.146;11.420;2022-10-03T11:18:01;10.85;;;5.68;;
63784;SDS011;49927;48.146;11.420;2022-10-03T11:30:19;9.13;;;5.18;;
63784;SDS011;49927;48.146;11.420;2022-10-03T11:33:17;7.93;;;5.03;;
63784;SDS011;49927;48.146;11.420;2022-10-03T11:39:20;10.45;;;6.60;;
63784;SDS011;49927;48.146;11.420;2022-10-03T11:41:59;9.02;;;4.85;;
63784;SDS011;49927;48.146;11.420;2022-10-03T11:44:28;20.67;;;5.15;;
63784;SDS011;49927;48.146;11.420;2022-10-03T11:46:59;9.82;;;4.75;;
63784;SDS011;49927;48.146;11.420;2022-10-03T11:52:33;15.95;;;6.35;;
63784;SDS011;49927;48.146;11.420;2022-10-03T11:55:13;8.38;;;4.65;;
63784;SDS011;49927;48.146;11.420;2022-10-03T11:57:46;8.25;;;4.53;;
63784;SDS011;49927;48.146;11.420;2022-10-03T12:00:17;14.00;;;7.10;;
63784;SDS011;49927;48.146;11.420;2022-10-03T12:02:51;11.45;;;4.60;;
63784;SDS011;49927;48.146;11.420;2022-10-03T12:05:26;9.63;;;4.53;;
63784;SDS011;49927;48.146;11.420;2022-10-03T12:08:00;9.40;;;5.43;;
63784;SDS011;49927;48.146;11.420;2022-10-03T12:10:40;6.07;;;3.78;;
63784;SDS011;49927;48.146;11.420;2022-10-03T12:13:11;5.85;;;3.85;;
63784;SDS011;49927;48.146;11.420;2022-10-03T12:15:40;7.72;;;3.75;;
63784;SDS011;49927;48.146;11.420;2022-10-03T12:18:09;6.35;;;3.92;;
63784;SDS011;49927;48.146;11.420;2022-10-03T12:20:42;5.15;;;3.75;;
63784;SDS011;49927;48.146;11.420;2022-10-03T12:23:25;8.50;;;3.88;;
63784;SDS011;49927;48.146;11.420;2022-10-03T12:25:56;7.63;;;3.50;;
63784;SDS011;49927;48.146;11.420;2022-10-03T12:28:22;5.13;;;3.88;;
63784;SDS011;49927;48.146;11.420;2022-10-03T12:30:52;6.32;;;3.13;;
63784;SDS011;49927;48.146;11.420;2022-10-03T12:33:36;4.55;;;3.10;;
63784;SDS011;49927;48.146;11.420;2022-10-03T12:36:10;6.20;;;3.10;;
63784;SDS011;49927;48.146;11.420;2022-10-03T12:38:41;5.03;;;3.25;;
63784;SDS011;49927;48.146;11.420;2022-10-03T12:41:20;5.75;;;3.10;;
63784;SDS011;49927;48.146;11.420;2022-10-03T12:43:59;7.53;;;3.67;;
63784;SDS011;49927;48.146;11.420;2022-10-03T12:46:37;8.63;;;3.00;;
63784;SDS011;49927;48.146;11.420;2022-10-03T12:49:33;5.25;;;2.65;;
63784;SDS011;49927;48.146;11.420;2022-10-03T12:52:14;5.17;;;2.80;;
63784;SDS011;49927;48.146;11.420;2022-10-03T12:54:44;4.57;;;2.75;;
63784;SDS011;49927;48.146;11.420;2022-10-03T12:57:19;6.07;;;2.95;;
63784;SDS011;49927;48.146;11.420;2022-10-03T13:02:27;4.55;;;2.33;;
63784;SDS011;49927;48.146;11.420;2022-10-03T13:05:06;3.63;;;2.60;;
63784;SDS011;49927;48.146;11.420;2022-10-03T13:07:49;3.85;;;2.50;;
63784;SDS011;49927;48.146;11.420;2022-10-03T13:10:18;8.57;;;2.72;;
63784;SDS011;49927;48.146;11.420;2022-10-03T13:12:51;9.90;;;3.70;;
63784;SDS011;49927;48.146;11.420;2022-10-03T13:18:28;5.63;;;3.72;;
63784;SDS011;49927;48.146;11.420;2022-10-03T13:21:02;7.18;;;4.13;;
63784;SDS011;49927;48.146;11.420;2022-10-03T13:23:32;7.38;;;4.38;;
63784;SDS011;49927;48.146;11.420;2022-10-03T13:26:06;11.57;;;6.32;;
63784;SDS011;49927;48.146;11.420;2022-10-03T13:28:36;9.63;;;4.10;;
63784;SDS011;49927;48.146;11.420;2022-10-03T13:31:12;10.10;;;4.93;;
63784;SDS011;49927;48.146;11.420;2022-10-03T13:33:41;9.98;;;5.18;;
63784;SDS011;49927;48.146;11.420;2022-10-03T13:36:12;7.75;;;4.75;;
63784;SDS011;49927;48.146;11.420;2022-10-03T13:41:44;7.10;;;4.95;;
63784;SDS011;49927;48.146;11.420;2022-10-03T13:44:32;11.27;;;4.18;;
63784;SDS011;49927;48.146;11.420;2022-10-03T13:47:01;7.72;;;3.88;;
63784;SDS011;49927;48.146;11.420;2022-10-03T13:49:39;9.90;;;4.80;;
63784;SDS011;49927;48.146;11.420;2022-10-03T13:52:13;8.75;;;5.15;;
63784;SDS011;49927;48.146;11.420;2022-10-03T13:54:53;8.45;;;4.43;;
63784;SDS011;49927;48.146;11.420;2022-10-03T13:57:31;7.18;;;3.97;;
63784;SDS011;49927;48.146;11.420;2022-10-03T14:00:00;8.00;;;3.72;;
63784;SDS011;49927;48.146;11.420;2022-10-03T14:05:37;11.05;;;5.07;;
63784;SDS011;49927;48.146;11.420;2022-10-03T14:08:11;9.63;;;4.60;;
63784;SDS011;49927;48.146;11.420;2022-10-03T14:10:48;8.38;;;4.65;;
63784;SDS011;49927;48.146;11.420;2022-10-03T14:13:24;11.77;;;5.35;;
63784;SDS011;49927;48.146;11.420;2022-10-03T14:15:57;10.82;;;4.68;;
63784;SDS011;49927;48.146;11.420;2022-10-03T14:18:31;13.60;;;4.25;;
63784;SDS011;49927;48.146;11.420;2022-10-03T14:24:13;7.22;;;3.55;;
63784;SDS011;49927;48.146;11.420;2022-10-03T14:26:46;8.15;;;3.38;;
63784;SDS011;49927;48.146;11.420;2022-10-03T14:29:17;12.90;;;4.35;;
63784;SDS011;49927;48.146;11.420;2022-10-03T14:31:46;9.57;;;3.95;;
63784;SDS011;49927;48.146;11.420;2022-10-03T14:34:18;7.68;;;3.67;;
63784;SDS011;49927;48.146;11.420;2022-10-03T14:36:59;5.97;;;3.75;;
63784;SDS011;49927;48.146;11.420;2022-10-03T14:45:35;4.53;;;3.20;;
63784;SDS011;49927;48.146;11.420;2022-10-03T14:48:03;4.63;;;3.38;;
63784;SDS011;49927;48.146;11.420;2022-10-03T14:50:31;7.43;;;3.55;;
63784;SDS011;49927;48.146;11.420;2022-10-03T14:52:59;7.03;;;3.67;;
63784;SDS011;49927;48.146;11.420;2022-10-03T14:55:27;7.70;;;3.40;;
63784;SDS011;49927;48.146;11.420;2022-10-03T14:57:57;7.65;;;3.90;;
63784;SDS011;49927;48.146;11.420;2022-10-03T15:00:26;7.15;;;3.22;;
63784;SDS011;49927;48.146;11.420;2022-10-03T15:02:58;6.32;;;3.10;;
63784;SDS011;49927;48.146;11.420;2022-10-03T15:05:49;5.97;;;3.00;;
63784;SDS011;49927;48.146;11.420;2022-10-03T15:08:20;7.82;;;3.40;;
63784;SDS011;49927;48.146;11.420;2022-10-03T15:10:47;5.15;;;3.53;;
63784;SDS011;49927;48.146;11.420;2022-10-03T15:13:14;7.82;;;3.17;;
63784;SDS011;49927;48.146;11.420;2022-10-03T15:15:40;6.13;;;2.80;;
63784;SDS011;49927;48.146;11.420;2022-10-03T15:18:12;6.70;;;3.05;;
63784;SDS011;49927;48.146;11.420;2022-10-03T15:20:39;6.50;;;2.95;;
63784;SDS011;49927;48.146;11.420;2022-10-03T15:23:06;8.63;;;3.15;;
63784;SDS011;49927;48.146;11.420;2022-10-03T15:25:40;5.28;;;2.60;;
63784;SDS011;49927;48.146;11.420;2022-10-03T15:28:07;5.68;;;2.90;;
63784;SDS011;49927;48.146;11.420;2022-10-03T15:30:35;4.82;;;2.25;;
63784;SDS011;49927;48.146;11.420;2022-10-03T15:33:04;7.00;;;3.33;;
63784;SDS011;49927;48.146;11.420;2022-10-03T15:35:35;6.22;;;2.83;;
63784;SDS011;49927;48.146;11.420;2022-10-03T15:38:05;5.65;;;2.40;;
63784;SDS011;49927;48.146;11.420;2022-10-03T15:40:35;4.07;;;2.65;;
63784;SDS011;49927;48.146;11.420;2022-10-03T15:43:04;5.18;;;3.03;;
63784;SDS011;49927;48.146;11.420;2022-10-03T15:45:31;7.88;;;3.20;;
63784;SDS011;49927;48.146;11.420;2022-10-03T15:47:57;3.17;;;2.30;;
63784;SDS011;49927;48.146;11.420;2022-10-03T15:50:26;8.80;;;3.03;;
63784;SDS011;49927;48.146;11.420;2022-10-03T15:52:53;6.55;;;2.92;;
63784;SDS011;49927;48.146;11.420;2022-10-03T15:55:23;8.02;;;4.60;;
63784;SDS011;49927;48.146;11.420;2022-10-03T15:57:50;6.07;;;3.60;;
63784;SDS011;49927;48.146;11.420;2022-10-03T16:00:20;13.05;;;6.65;;
63784;SDS011;49927;48.146;11.420;2022-10-03T16:02:48;7.95;;;3.90;;
63784;SDS011;49927;48.146;11.420;2022-10-03T16:05:18;10.43;;;3.55;;
63784;SDS011;49927;48.146;11.420;2022-10-03T16:07:48;6.47;;;2.60;;
63784;SDS011;49927;48.146;11.420;2022-10-03T16:10:20;6.50;;;2.28;;
63784;SDS011;49927;48.146;11.420;2022-10-03T16:12:49;6.97;;;3.28;;
63784;SDS011;49927;48.146;11.420;2022-10-03T16:15:21;11.50;;;3.90;;
63784;SDS011;49927;48.146;11.420;2022-10-03T16:17:50;9.25;;;3.17;;
63784;SDS011;49927;48.146;11.420;2022-10-03T16:20:29;11.40;;;4.00;;
63784;SDS011;49927;48.146;11.420;2022-10-03T16:23:00;6.00;;;3.30;;
63784;SDS011;49927;48.146;11.420;2022-10-03T16:25:38;12.18;;;4.00;;
63784;SDS011;49927;48.146;11.420;2022-10-03T16:30:39;6.72;;;3.63;;
63784;SDS011;49927;48.146;11.420;2022-10-03T16:33:10;7.53;;;3.70;;
63784;SDS011;49927;48.146;11.420;2022-10-03T16:35:40;6.55;;;3.90;;
63784;SDS011;49927;48.146;11.420;2022-10-03T16:38:07;7.70;;;4.00;;
63784;SDS011;49927;48.146;11.420;2022-10-03T16:40:47;9.82;;;5.03;;
63784;SDS011;49927;48.146;11.420;2022-10-03T16:43:16;19.92;;;7.53;;
63784;SDS011;49927;48.146;11.420;2022-10-03T16:45:44;15.13;;;7.13;;
63784;SDS011;49927;48.146;11.420;2022-10-03T16:48:11;14.95;;;7.30;;
63784;SDS011;49927;48.146;11.420;2022-10-03T16:50:39;17.13;;;6.85;;
63784;SDS011;49927;48.146;11.420;2022-10-03T16:53:07;13.38;;;6.60;;
63784;SDS011;49927;48.146;11.420;2022-10-03T16:55:35;14.10;;;6.35;;
63784;SDS011;49927;48.146;11.420;2022-10-03T16:58:04;13.27;;;5.60;;
63784;SDS011;49927;48.146;11.420;2022-10-03T17:00:37;8.90;;;5.68;;
63784;SDS011;49927;48.146;11.420;2022-10-03T17:03:15;8.77;;;4.72;;
63784;SDS011;49927;48.146;11.420;2022-10-03T17:05:42;8.90;;;4.78;;
63784;SDS011;49927;48.146;11.420;2022-10-03T17:08:09;8.43;;;4.65;;
63784;SDS011;49927;48.146;11.420;2022-10-03T17:10:37;12.65;;;4.60;;
63784;SDS011;49927;48.146;11.420;2022-10-03T17:13:05;6.35;;;4.20;;
63784;SDS011;49927;48.146;11.420;2022-10-03T17:15:37;9.88;;;4.53;;
63784;SDS011;49927;48.146;11.420;2022-10-03T17:18:13;11.55;;;5.32;;
63784;SDS011;49927;48.146;11.420;2022-10-03T17:20:43;7.88;;;5.15;;
63784;SDS011;49927;48.146;11.420;2022-10-03T17:23:11;12.13;;;5.40;;
63784;SDS011;49927;48.146;11.420;2022-10-03T17:25:43;11.25;;;5.88;;
63784;SDS011;49927;48.146;11.420;2022-10-03T17:28:13;19.42;;;8.30;;
63784;SDS011;49927;48.146;11.420;2022-10-03T17:30:44;109.28;;;33.08;;
63784;SDS011;49927;48.146;11.420;2022-10-03T17:33:12;131.30;;;37.47;;
63784;SDS011;49927;48.146;11.420;2022-10-03T17:35:44;210.45;;;65.70;;
63784;SDS011;49927;48.146;11.420;2022-10-03T17:38:22;77.88;;;24.40;;
63784;SDS011;49927;48.146;11.420;2022-10-03T17:41:11;50.83;;;19.02;;
63784;SDS011;49927;48.146;11.420;2022-10-03T17:43:38;34.25;;;14.38;;
63784;SDS011;49927;48.146;11.420;2022-10-03T17:46:11;65.90;;;30.67;;
63784;SDS011;49927;48.146;11.420;2022-10-03T17:48:44;52.30;;;24.80;;
63784;SDS011;49927;48.146;11.420;2022-10-03T17:54:02;47.80;;;26.80;;
63784;SDS011;49927;48.146;11.420;2022-10-03T17:56:30;39.40;;;22.15;;
63784;SDS011;49927;48.146;11.420;2022-10-03T17:58:57;26.80;;;16.45;;
63784;SDS011;49927;48.146;11.420;2022-10-03T18:01:26;24.48;;;14.18;;
63784;SDS011;49927;48.146;11.420;2022-10-03T18:03:58;16.92;;;12.10;;
63784;SDS011;49927;48.146;11.420;2022-10-03T18:06:34;20.67;;;13.23;;
63784;SDS011;49927;48.146;11.420;2022-10-03T18:09:06;20.15;;;13.85;;
63784;SDS011;49927;48.146;11.420;2022-10-03T18:11:33;27.15;;;16.25;;
63784;SDS011;49927;48.146;11.420;2022-10-03T18:14:04;25.00;;;14.35;;
63784;SDS011;49927;48.146;11.420;2022-10-03T18:16:34;20.98;;;13.80;;
63784;SDS011;49927;48.146;11.420;2022-10-03T18:19:16;20.75;;;14.10;;
63784;SDS011;49927;48.146;11.420;2022-10-03T18:21:54;26.70;;;16.40;;
63784;SDS011;49927;48.146;11.420;2022-10-03T18:24:23;37.33;;;21.65;;
63784;SDS011;49927;48.146;11.420;2022-10-03T18:27:04;38.95;;;22.88;;
63784;SDS011;49927;48.146;11.420;2022-10-03T18:29:35;30.17;;;21.52;;
63784;SDS011;49927;48.146;11.420;2022-10-03T18:32:10;38.20;;;23.15;;
63784;SDS011;49927;48.146;11.420;2022-10-03T18:34:41;38.33;;;22.05;;
63784;SDS011;49927;48.146;11.420;2022-10-03T18:37:16;39.97;;;22.40;;
63784;SDS011;49927;48.146;11.420;2022-10-03T18:40:33;38.63;;;22.05;;
63784;SDS011;49927;48.146;11.420;2022-10-03T18:43:00;27.73;;;17.75;;
63784;SDS011;49927;48.146;11.420;2022-10-03T18:45:29;53.45;;;25.45;;
63784;SDS011;49927;48.146;11.420;2022-10-03T18:47:58;35.50;;;20.20;;
63784;SDS011;49927;48.146;11.420;2022-10-03T18:50:27;41.67;;;20.20;;
63784;SDS011;49927;48.146;11.420;2022-10-03T18:52:55;25.73;;;16.25;;
63784;SDS011;49927;48.146;11.420;2022-10-03T18:55:24;18.77;;;13.13;;
63784;SDS011;49927;48.146;11.420;2022-10-03T18:57:53;17.33;;;9.68;;
63784;SDS011;49927;48.146;11.420;2022-10-03T19:00:26;18.35;;;11.75;;
63784;SDS011;49927;48.146;11.420;2022-10-03T19:02:55;19.23;;;10.85;;
63784;SDS011;49927;48.146;11.420;2022-10-03T19:05:22;19.35;;;11.32;;
63784;SDS011;49927;48.146;11.420;2022-10-03T19:08:08;15.75;;;9.60;;
63784;SDS011;49927;48.146;11.420;2022-10-03T19:10:36;19.60;;;10.90;;